Time;durP1;ratioP1;P1;durP2;ratioP2;P2;SDS_P1;SDS_P2;PMS_P1;PMS_P2;Temp;Humidity;BMP_temperature;BMP_pressure;BME280_temperature;BME280_humidity;BME280_pressure;Samples;Min_cycle;Max_cycle;Signal;HPM_P1;HPM_P2
2023/05/20 00:00:09;;;;;;;13.95;5.18;;;;;;;;;;5073180;28;20031;-74
2023/05/20 00:02:36;;;;;;;9.25;4.35;;;;;;;;;;5072963;28;20551;-74
2023/05/20 00:05:02;;;;;;;7.15;3.45;;;;;;;;;;5072854;28;20548;-74
2023/05/20 00:07:28;;;;;;;13.75;4.15;;;;;;;;;;5072868;28;20028;-74
2023/05/20 00:09:54;;;;;;;9.82;4.30;;;;;;;;;;5073242;28;20029;-74
2023/05/20 00:12:20;;;;;;;10.77;4.40;;;;;;;;;;5073089;28;20024;-74
2023/05/20 00:14:46;;;;;;;9.75;4.50;;;;;;;;;;5072854;28;20097;-74
2023/05/20 00:17:12;;;;;;;9.95;4.13;;;;;;;;;;5072889;28;20103;-74
2023/05/20 00:19:45;;;;;;;12.07;4.70;;;;;;;;;;5072560;28;20127;-74
2023/05/20 00:22:11;;;;;;;13.00;4.70;;;;;;;;;;5072840;28;20356;-74
2023/05/20 00:24:37;;;;;;;13.52;4.57;;;;;;;;;;5085397;28;20108;-74
2023/05/20 00:27:03;;;;;;;12.60;4.70;;;;;;;;;;5093142;28;20375;-74
2023/05/20 00:29:30;;;;;;;13.02;4.90;;;;;;;;;;5092975;28;20102;-74
2023/05/20 00:31:56;;;;;;;8.10;3.80;;;;;;;;;;5093076;28;20070;-74
2023/05/20 00:34:22;;;;;;;14.90;4.75;;;;;;;;;;5092826;28;20497;-74
2023/05/20 00:36:48;;;;;;;10.57;4.35;;;;;;;;;;5092947;28;20024;-74
2023/05/20 00:39:14;;;;;;;10.38;3.95;;;;;;;;;;5093003;28;20024;-74
2023/05/20 00:41:40;;;;;;;11.05;3.97;;;;;;;;;;5073011;28;20362;-74
2023/05/20 00:44:06;;;;;;;14.60;4.30;;;;;;;;;;5075245;28;20108;-74
2023/05/20 00:46:33;;;;;;;10.95;4.57;;;;;;;;;;5092779;28;20024;-74
2023/05/20 00:48:59;;;;;;;11.57;4.63;;;;;;;;;;5092736;28;20034;-74
2023/05/20 00:51:25;;;;;;;11.75;4.63;;;;;;;;;;5092822;28;20085;-74
2023/05/20 00:53:51;;;;;;;9.55;4.50;;;;;;;;;;5092385;28;20025;-74
2023/05/20 00:56:18;;;;;;;14.85;4.60;;;;;;;;;;5092878;28;20428;-74
2023/05/20 00:58:44;;;;;;;11.13;4.68;;;;;;;;;;5092486;28;20355;-74
2023/05/20 01:01:10;;;;;;;9.73;4.38;;;;;;;;;;5092506;28;20036;-74
2023/05/20 01:03:36;;;;;;;9.05;4.07;;;;;;;;;;5074305;28;20028;-74
2023/05/20 01:06:02;;;;;;;8.48;3.95;;;;;;;;;;5092555;28;20016;-74
2023/05/20 01:08:28;;;;;;;10.73;4.93;;;;;;;;;;5092598;28;20020;-74
2023/05/20 01:11:06;;;;;;;11.23;4.30;;;;;;;;;;5092519;28;20032;-74
2023/05/20 01:13:35;;;;;;;6.00;3.20;;;;;;;;;;5092565;28;20032;-74
2023/05/20 01:16:03;;;;;;;9.65;4.43;;;;;;;;;;5092400;28;20035;-74
2023/05/20 01:18:30;;;;;;;11.35;4.50;;;;;;;;;;5092371;28;20529;-74
2023/05/20 01:21:00;;;;;;;8.88;3.78;;;;;;;;;;5092195;28;20028;-74
2023/05/20 01:23:30;;;;;;;9.57;3.40;;;;;;;;;;5072756;28;20157;-74
2023/05/20 01:25:56;;;;;;;;;;;;;;;;;;5095575;28;20055;-74
2023/05/20 01:28:29;;;;;;;10.38;4.80;;;;;;;;;;5096045;28;20347;-74
2023/05/20 01:30:56;;;;;;;11.60;4.55;;;;;;;;;;5096369;28;20039;-74
2023/05/20 01:33:23;;;;;;;12.30;5.78;;;;;;;;;;5096143;28;20024;-74
2023/05/20 01:35:49;;;;;;;9.80;4.28;;;;;;;;;;5095872;28;20026;-74
2023/05/20 01:38:16;;;;;;;7.95;4.30;;;;;;;;;;5096109;28;20415;-74
2023/05/20 01:40:42;;;;;;;13.05;5.18;;;;;;;;;;5095892;28;20094;-74
2023/05/20 01:43:09;;;;;;;18.90;5.25;;;;;;;;;;5096219;28;20024;-74
2023/05/20 01:45:35;;;;;;;11.70;4.70;;;;;;;;;;5095972;28;20051;-74
2023/05/20 01:48:02;;;;;;;14.88;5.30;;;;;;;;;;5096187;28;20073;-74
2023/05/20 01:50:28;;;;;;;9.38;4.72;;;;;;;;;;5095851;28;20016;-74
2023/05/20 01:52:54;;;;;;;17.15;5.15;;;;;;;;;;5095606;28;20105;-74
2023/05/20 01:55:20;;;;;;;14.20;5.32;;;;;;;;;;5095641;28;20024;-74
2023/05/20 01:57:46;;;;;;;10.75;4.85;;;;;;;;;;5095574;28;20040;-74
2023/05/20 02:00:12;;;;;;;13.43;5.85;;;;;;;;;;5095455;28;20048;-74
2023/05/20 02:02:38;;;;;;;9.52;5.18;;;;;;;;;;5095337;28;20093;-74
2023/05/20 02:05:04;;;;;;;11.40;4.72;;;;;;;;;;5095579;28;20020;-74
2023/05/20 02:07:30;;;;;;;10.32;5.57;;;;;;;;;;5095849;28;20418;-75
2023/05/20 02:09:56;;;;;;;9.38;5.38;;;;;;;;;;5096653;28;20031;-76
2023/05/20 02:12:22;;;;;;;11.77;5.65;;;;;;;;;;5097234;28;20059;-75
2023/05/20 02:14:49;;;;;;;12.40;5.40;;;;;;;;;;5095387;28;20493;-75
2023/05/20 02:17:21;;;;;;;12.38;5.88;;;;;;;;;;5095270;28;20354;-74
2023/05/20 02:19:48;;;;;;;12.93;5.40;;;;;;;;;;5095263;28;20482;-76
2023/05/20 02:22:14;;;;;;;13.77;5.45;;;;;;;;;;5095381;28;20358;-75
2023/05/20 02:24:42;;;;;;;13.57;5.60;;;;;;;;;;5093730;28;20044;-75
2023/05/20 02:27:08;;;;;;;13.00;5.85;;;;;;;;;;5091007;28;20096;-75
2023/05/20 02:29:34;;;;;;;10.95;5.25;;;;;;;;;;5080537;28;20437;-75
2023/05/20 02:32:00;;;;;;;15.77;6.50;;;;;;;;;;5094999;28;20453;-75
2023/05/20 02:34:27;;;;;;;15.80;6.55;;;;;;;;;;5094907;28;20031;-75
2023/05/20 02:36:53;;;;;;;10.55;4.95;;;;;;;;;;5093839;28;20032;-75
2023/05/20 02:39:19;;;;;;;14.82;6.28;;;;;;;;;;5095504;28;20031;-75
2023/05/20 02:41:45;;;;;;;14.63;6.40;;;;;;;;;;5094809;28;20132;-75
2023/05/20 02:44:11;;;;;;;16.70;6.38;;;;;;;;;;5094858;28;20107;-75
2023/05/20 02:46:37;;;;;;;15.88;5.82;;;;;;;;;;5094794;28;20020;-75
2023/05/20 02:49:03;;;;;;;13.40;6.22;;;;;;;;;;5094681;28;20086;-75
2023/05/20 02:51:30;;;;;;;8.95;5.85;;;;;;;;;;5094524;28;20020;-75
2023/05/20 02:53:57;;;;;;;11.20;5.72;;;;;;;;;;5094710;28;20028;-75
2023/05/20 02:56:23;;;;;;;12.75;6.22;;;;;;;;;;5094428;28;20024;-75
2023/05/20 02:58:49;;;;;;;10.68;5.07;;;;;;;;;;5094898;28;20074;-75
2023/05/20 03:01:15;;;;;;;10.43;5.95;;;;;;;;;;5076156;28;20036;-75
2023/05/20 03:03:41;;;;;;;12.52;6.32;;;;;;;;;;5080585;28;20016;-75
2023/05/20 03:06:08;;;;;;;11.07;5.95;;;;;;;;;;5094314;28;20027;-75
2023/05/20 03:08:34;;;;;;;12.48;5.80;;;;;;;;;;5094339;28;20032;-75
2023/05/20 03:11:00;;;;;;;14.55;7.15;;;;;;;;;;5094372;28;20028;-75
2023/05/20 03:13:26;;;;;;;18.38;7.40;;;;;;;;;;5094117;28;20055;-75
2023/05/20 03:15:53;;;;;;;12.10;5.35;;;;;;;;;;5094189;28;20028;-75
2023/05/20 03:18:19;;;;;;;16.52;5.60;;;;;;;;;;5094194;28;20016;-75
2023/05/20 03:20:45;;;;;;;16.38;6.85;;;;;;;;;;5094154;28;20466;-75
2023/05/20 03:23:12;;;;;;;9.55;4.70;;;;;;;;;;5093601;28;20093;-75
2023/05/20 03:25:38;;;;;;;9.60;5.03;;;;;;;;;;5092223;28;20071;-75
2023/05/20 03:28:05;;;;;;;13.48;6.35;;;;;;;;;;5093944;28;20020;-75
2023/05/20 03:30:31;;;;;;;9.60;5.97;;;;;;;;;;5093583;28;20382;-75
2023/05/20 03:32:58;;;;;;;13.68;6.97;;;;;;;;;;5093740;28;20028;-75
2023/05/20 03:35:24;;;;;;;14.18;6.50;;;;;;;;;;5093502;28;20032;-75
2023/05/20 03:37:53;;;;;;;14.23;6.47;;;;;;;;;;5093478;28;20024;-75
2023/05/20 03:40:19;;;;;;;13.07;5.72;;;;;;;;;;5093482;28;20423;-75
2023/05/20 03:42:46;;;;;;;14.38;5.60;;;;;;;;;;5093433;28;20043;-75
2023/05/20 03:45:12;;;;;;;14.93;6.78;;;;;;;;;;5093825;28;20027;-75
2023/05/20 03:47:38;;;;;;;14.35;6.43;;;;;;;;;;5093287;28;20099;-75
2023/05/20 03:50:05;;;;;;;11.38;5.57;;;;;;;;;;5093385;28;20020;-75
2023/05/20 03:52:39;;;;;;;13.40;6.10;;;;;;;;;;5093604;28;20024;-75
2023/05/20 03:55:09;;;;;;;12.38;6.55;;;;;;;;;;5093664;28;20028;-75
2023/05/20 03:57:35;;;;;;;11.93;6.65;;;;;;;;;;5092883;28;20489;-75
2023/05/20 04:00:04;;;;;;;13.43;6.90;;;;;;;;;;5093233;28;20035;-75
2023/05/20 04:02:30;;;;;;;15.80;7.10;;;;;;;;;;5074676;28;20036;-75
2023/05/20 04:05:03;;;;;;;12.35;6.88;;;;;;;;;;5093313;28;20035;-75
2023/05/20 04:07:29;;;;;;;13.95;6.43;;;;;;;;;;5093381;28;20060;-75
2023/05/20 04:09:55;;;;;;;11.05;6.05;;;;;;;;;;5093170;28;20468;-75
2023/05/20 04:12:21;;;;;;;11.85;6.05;;;;;;;;;;5093109;28;20032;-75
2023/05/20 04:14:48;;;;;;;13.52;6.45;;;;;;;;;;5093492;28;20024;-75
2023/05/20 04:17:15;;;;;;;12.25;6.10;;;;;;;;;;5092999;28;20016;-75
2023/05/20 04:19:41;;;;;;;12.00;6.18;;;;;;;;;;5077469;28;20024;-75
2023/05/20 04:22:07;;;;;;;12.13;6.18;;;;;;;;;;5082637;28;20088;-75
2023/05/20 04:24:33;;;;;;;10.13;6.28;;;;;;;;;;5092549;28;20055;-75
2023/05/20 04:26:59;;;;;;;13.50;6.40;;;;;;;;;;5092921;28;20437;-75
2023/05/20 04:29:25;;;;;;;13.32;6.70;;;;;;;;;;5092925;28;20073;-75
2023/05/20 04:31:52;;;;;;;11.70;5.97;;;;;;;;;;5092989;28;20412;-75
2023/05/20 04:34:19;;;;;;;16.77;6.82;;;;;;;;;;5093113;28;20020;-75
2023/05/20 04:36:45;;;;;;;9.88;5.15;;;;;;;;;;5092882;28;20020;-76
2023/05/20 04:39:11;;;;;;;9.73;6.20;;;;;;;;;;5092819;28;20093;-76
2023/05/20 04:41:38;;;;;;;7.57;4.97;;;;;;;;;;5088837;28;20401;-75
2023/05/20 04:44:05;;;;;;;9.35;5.30;;;;;;;;;;5072756;28;20066;-75
2023/05/20 04:46:32;;;;;;;13.02;5.38;;;;;;;;;;5076237;28;20382;-75
2023/05/20 04:48:58;;;;;;;11.15;6.90;;;;;;;;;;5092989;28;20034;-75
2023/05/20 04:51:24;;;;;;;8.95;4.88;;;;;;;;;;5092628;28;20055;-75
2023/05/20 04:53:58;;;;;;;9.18;5.30;;;;;;;;;;5092596;28;20047;-75
2023/05/20 04:56:24;;;;;;;10.73;5.15;;;;;;;;;;5093148;28;20113;-75
2023/05/20 04:58:51;;;;;;;10.55;4.85;;;;;;;;;;5093208;28;20020;-76
2023/05/20 05:01:17;;;;;;;6.45;3.92;;;;;;;;;;5096496;28;20028;-75
2023/05/20 05:03:43;;;;;;;8.30;4.68;;;;;;;;;;5097073;28;20024;-76
2023/05/20 05:06:09;;;;;;;7.57;4.35;;;;;;;;;;5096631;28;20550;-76
2023/05/20 05:08:35;;;;;;;7.63;4.47;;;;;;;;;;5096545;28;20089;-76
2023/05/20 05:11:01;;;;;;;7.68;4.55;;;;;;;;;;5096433;28;20381;-76
2023/05/20 05:13:27;;;;;;;5.85;3.65;;;;;;;;;;5096275;28;20032;-76
2023/05/20 05:15:59;;;;;;;7.28;3.55;;;;;;;;;;5096240;28;20030;-76
2023/05/20 05:18:25;;;;;;;5.97;3.35;;;;;;;;;;5096232;28;20016;-76
2023/05/20 05:20:58;;;;;;;3.97;3.05;;;;;;;;;;5096462;28;20525;-75
2023/05/20 05:23:24;;;;;;;5.90;3.13;;;;;;;;;;5096840;28;20024;-78
2023/05/20 05:25:53;;;;;;;3.75;2.88;;;;;;;;;;5101255;28;20119;-78
2023/05/20 05:28:19;;;;;;;3.83;2.28;;;;;;;;;;5082660;28;20020;-77
2023/05/20 05:30:45;;;;;;;3.53;2.40;;;;;;;;;;5096503;28;20103;-78
2023/05/20 05:33:12;;;;;;;3.78;2.20;;;;;;;;;;5096578;28;20106;-77
2023/05/20 05:35:42;;;;;;;2.58;2.35;;;;;;;;;;5073116;28;20020;-78
2023/05/20 05:38:09;;;;;;;3.97;2.20;;;;;;;;;;5090533;28;20102;-77
2023/05/20 05:40:35;;;;;;;3.55;2.10;;;;;;;;;;5097214;28;20027;-78
2023/05/20 05:43:01;;;;;;;3.97;2.10;;;;;;;;;;5084477;28;20028;-77
2023/05/20 05:45:27;;;;;;;4.55;2.10;;;;;;;;;;5099786;28;20028;-77
2023/05/20 05:47:53;;;;;;;2.50;1.70;;;;;;;;;;5082841;28;20031;-77
2023/05/20 05:50:20;;;;;;;2.92;2.10;;;;;;;;;;5097272;28;20420;-77
2023/05/20 05:52:46;;;;;;;3.45;1.90;;;;;;;;;;5095630;28;20604;-77
2023/05/20 05:55:12;;;;;;;2.63;2.00;;;;;;;;;;5095935;28;20024;-78
2023/05/20 05:57:38;;;;;;;5.90;2.25;;;;;;;;;;5095662;28;20028;-77
2023/05/20 06:00:04;;;;;;;2.20;1.90;;;;;;;;;;5095388;28;20077;-77
2023/05/20 06:02:34;;;;;;;4.15;1.60;;;;;;;;;;5095230;28;20028;-77
2023/05/20 06:05:01;;;;;;;3.83;2.20;;;;;;;;;;5095514;28;20017;-77
2023/05/20 06:07:27;;;;;;;2.95;1.95;;;;;;;;;;5095225;28;20098;-77
2023/05/20 06:09:52;;;;;;;4.40;1.88;;;;;;;;;;5095548;28;20016;-77
2023/05/20 06:12:18;;;;;;;5.50;2.15;;;;;;;;;;5095216;28;20032;-77
2023/05/20 06:14:44;;;;;;;2.65;2.00;;;;;;;;;;5095370;28;20611;-77
2023/05/20 06:17:10;;;;;;;3.03;1.63;;;;;;;;;;5095008;28;20016;-77
2023/05/20 06:19:37;;;;;;;3.30;2.00;;;;;;;;;;5095339;28;20524;-77
2023/05/20 06:22:03;;;;;;;4.97;1.77;;;;;;;;;;5095466;28;20100;-77
2023/05/20 06:24:29;;;;;;;1.25;1.15;;;;;;;;;;5094338;28;20249;-77
2023/05/20 06:26:55;;;;;;;2.28;1.80;;;;;;;;;;5095031;28;20475;-77
2023/05/20 06:29:20;;;;;;;3.25;1.48;;;;;;;;;;5095146;28;20028;-77
2023/05/20 06:31:46;;;;;;;2.13;1.65;;;;;;;;;;5110593;28;20255;-78
2023/05/20 06:34:12;;;;;;;2.08;1.27;;;;;;;;;;5115836;28;20442;-77
2023/05/20 06:36:38;;;;;;;3.60;1.50;;;;;;;;;;5098178;28;20055;-78
2023/05/20 06:39:10;;;;;;;2.97;1.67;;;;;;;;;;5097044;28;20077;-78
2023/05/20 06:41:36;;;;;;;2.03;1.45;;;;;;;;;;5073619;28;20123;-77
2023/05/20 06:44:02;;;;;;;1.83;1.17;;;;;;;;;;5095348;28;20125;-78
2023/05/20 06:46:28;;;;;;;1.98;1.50;;;;;;;;;;5094633;28;20027;-77
2023/05/20 06:48:54;;;;;;;1.70;1.60;;;;;;;;;;5076609;28;20063;-77
2023/05/20 06:51:20;;;;;;;2.25;1.23;;;;;;;;;;5095417;28;20024;-78
2023/05/20 06:53:46;;;;;;;1.40;1.30;;;;;;;;;;5077038;28;20024;-77
2023/05/20 06:56:12;;;;;;;2.33;1.63;;;;;;;;;;5077689;28;20528;-78
2023/05/20 06:58:38;;;;;;;1.92;1.40;;;;;;;;;;5077904;28;20032;-78
2023/05/20 07:01:04;;;;;;;3.30;1.55;;;;;;;;;;5079515;28;20028;-78
2023/05/20 07:03:30;;;;;;;1.90;1.63;;;;;;;;;;5099872;28;20073;-78
2023/05/20 07:05:56;;;;;;;1.65;1.48;;;;;;;;;;5079025;28;20032;-78
2023/05/20 07:08:22;;;;;;;4.22;1.33;;;;;;;;;;5081568;28;20025;-78
2023/05/20 07:10:48;;;;;;;2.58;1.25;;;;;;;;;;5082195;28;20371;-78
2023/05/20 07:13:14;;;;;;;3.42;1.30;;;;;;;;;;5080666;28;20032;-78
2023/05/20 07:15:40;;;;;;;1.38;1.20;;;;;;;;;;5083045;28;20020;-79
2023/05/20 07:18:06;;;;;;;3.25;1.20;;;;;;;;;;5085896;28;20024;-78
2023/05/20 07:20:32;;;;;;;2.65;1.33;;;;;;;;;;5082099;28;20111;-78
2023/05/20 07:22:59;;;;;;;1.77;1.02;;;;;;;;;;5099687;28;20031;-78
2023/05/20 07:25:25;;;;;;;2.15;1.10;;;;;;;;;;5099603;28;20067;-78
2023/05/20 07:27:51;;;;;;;1.05;0.60;;;;;;;;;;5081615;28;20028;-78
2023/05/20 07:30:17;;;;;;;1.17;1.05;;;;;;;;;;5100313;28;20543;-78
2023/05/20 07:32:43;;;;;;;1.65;1.02;;;;;;;;;;5067319;28;20032;-79
2023/05/20 07:35:09;;;;;;;1.05;0.90;;;;;;;;;;5093903;28;20032;-78
2023/05/20 07:37:35;;;;;;;2.97;0.95;;;;;;;;;;5073514;28;20119;-79
2023/05/20 07:40:01;;;;;;;2.47;1.00;;;;;;;;;;5075247;28;20499;-79
2023/05/20 07:42:28;;;;;;;2.67;0.80;;;;;;;;;;5074183;28;20406;-79
2023/05/20 07:44:54;;;;;;;1.15;0.82;;;;;;;;;;5074232;28;20061;-79
2023/05/20 07:47:20;;;;;;;1.77;1.00;;;;;;;;;;5074389;28;20124;-79
2023/05/20 07:49:46;;;;;;;1.83;0.85;;;;;;;;;;5073995;28;20035;-78
2023/05/20 07:52:12;;;;;;;4.43;0.98;;;;;;;;;;5092912;28;20028;-79
2023/05/20 07:54:38;;;;;;;1.08;0.90;;;;;;;;;;5070026;28;20452;-79
2023/05/20 07:57:04;;;;;;;3.03;1.25;;;;;;;;;;5073284;28;20498;-78
2023/05/20 07:59:30;;;;;;;3.50;1.02;;;;;;;;;;5075405;28;20073;-78
2023/05/20 08:01:56;;;;;;;2.90;1.05;;;;;;;;;;5070889;28;20032;-79
2023/05/20 08:04:22;;;;;;;2.15;0.95;;;;;;;;;;5075630;28;20024;-79
2023/05/20 08:06:49;;;;;;;4.15;1.00;;;;;;;;;;5075501;28;20035;-78
2023/05/20 08:09:16;;;;;;;1.20;0.80;;;;;;;;;;5076333;28;20030;-79
2023/05/20 08:11:42;;;;;;;3.40;1.15;;;;;;;;;;5097097;28;20038;-78
2023/05/20 08:14:08;;;;;;;1.83;0.77;;;;;;;;;;5096969;28;20028;-78
2023/05/20 08:16:36;;;;;;;2.25;1.00;;;;;;;;;;5099459;28;20031;-78
2023/05/20 08:19:02;;;;;;;1.17;1.00;;;;;;;;;;5103466;28;20082;-78
2023/05/20 08:21:28;;;;;;;2.53;0.98;;;;;;;;;;5085551;28;20440;-78
2023/05/20 08:23:54;;;;;;;2.45;1.63;;;;;;;;;;5102331;28;20048;-78
2023/05/20 08:26:20;;;;;;;2.83;1.20;;;;;;;;;;5100586;28;20050;-78
2023/05/20 08:28:49;;;;;;;2.17;1.35;;;;;;;;;;5093192;28;20028;-77
2023/05/20 08:31:16;;;;;;;2.08;1.10;;;;;;;;;;5101607;28;20107;-78
2023/05/20 08:33:42;;;;;;;2.17;1.00;;;;;;;;;;5097023;28;20028;-79
2023/05/20 08:36:08;;;;;;;2.83;1.20;;;;;;;;;;5102940;28;20024;-78
2023/05/20 08:38:35;;;;;;;3.92;1.02;;;;;;;;;;5100649;28;20385;-78
2023/05/20 08:41:01;;;;;;;1.75;1.17;;;;;;;;;;5102445;28;20020;-78
2023/05/20 08:43:29;;;;;;;2.95;1.30;;;;;;;;;;5101716;28;20071;-78
2023/05/20 08:45:55;;;;;;;3.47;1.30;;;;;;;;;;5080441;28;20027;-78
2023/05/20 08:48:26;;;;;;;0.77;0.70;;;;;;;;;;5099555;28;20035;-78
2023/05/20 08:50:53;;;;;;;1.17;0.75;;;;;;;;;;5099960;28;20016;-78
2023/05/20 08:53:21;;;;;;;2.10;1.20;;;;;;;;;;5094283;28;20445;-78
2023/05/20 08:56:02;;;;;;;1.40;1.17;;;;;;;;;;5100027;28;20052;-78
2023/05/20 08:58:31;;;;;;;3.70;1.00;;;;;;;;;;5099121;28;20028;-78
2023/05/20 09:00:57;;;;;;;1.75;1.05;;;;;;;;;;5093422;28;20525;-78
2023/05/20 09:03:24;;;;;;;2.05;0.70;;;;;;;;;;5104036;28;20020;-78
2023/05/20 09:05:50;;;;;;;2.20;0.95;;;;;;;;;;5098585;28;20086;-78
2023/05/20 09:08:16;;;;;;;3.35;1.00;;;;;;;;;;5096618;28;20032;-78
2023/05/20 09:10:42;;;;;;;2.05;0.85;;;;;;;;;;5100300;28;20387;-78
2023/05/20 09:13:09;;;;;;;2.25;0.82;;;;;;;;;;5098942;28;20120;-79
2023/05/20 09:15:36;;;;;;;2.17;0.82;;;;;;;;;;5105491;28;20031;-78
2023/05/20 09:18:03;;;;;;;1.67;0.80;;;;;;;;;;5088928;28;20024;-78
2023/05/20 09:20:29;;;;;;;2.97;1.08;;;;;;;;;;5105528;28;20023;-78
2023/05/20 09:22:59;;;;;;;2.90;1.05;;;;;;;;;;5099918;28;20077;-78
2023/05/20 09:25:25;;;;;;;;;;;;;;;;;;5096628;28;20048;-78
2023/05/20 09:27:51;;;;;;;1.00;0.90;;;;;;;;;;5105886;28;19967;-78
2023/05/20 09:30:20;;;;;;;0.90;0.68;;;;;;;;;;5079094;28;20055;-78
2023/05/20 09:32:53;;;;;;;1.27;0.90;;;;;;;;;;5099587;28;20024;-78
2023/05/20 09:35:20;;;;;;;1.98;0.80;;;;;;;;;;5106533;28;20016;-78
2023/05/20 09:37:46;;;;;;;1.42;0.88;;;;;;;;;;5102859;28;20033;-78
2023/05/20 09:40:14;;;;;;;2.15;0.90;;;;;;;;;;5100242;28;20024;-78
2023/05/20 09:42:43;;;;;;;1.90;1.10;;;;;;;;;;5098194;28;20016;-78
2023/05/20 09:45:09;;;;;;;3.28;1.10;;;;;;;;;;5102273;28;20035;-78
2023/05/20 09:47:37;;;;;;;1.33;1.00;;;;;;;;;;5104008;28;20027;-78
2023/05/20 09:50:06;;;;;;;2.15;1.10;;;;;;;;;;5100734;28;20032;-78
2023/05/20 09:52:33;;;;;;;2.78;0.90;;;;;;;;;;5104872;28;20032;-78
2023/05/20 09:55:02;;;;;;;2.42;1.02;;;;;;;;;;5109178;28;20016;-78
2023/05/20 09:57:30;;;;;;;1.67;0.85;;;;;;;;;;5108589;28;20058;-79
2023/05/20 09:59:56;;;;;;;4.47;1.00;;;;;;;;;;5105747;28;20024;-79
2023/05/20 10:02:22;;;;;;;1.63;0.95;;;;;;;;;;5098661;28;20040;-79
2023/05/20 10:04:49;;;;;;;3.47;1.02;;;;;;;;;;5103334;28;20460;-79
2023/05/20 10:07:15;;;;;;;2.17;1.30;;;;;;;;;;5089230;28;20082;-78
2023/05/20 10:09:58;;;;;;;3.33;0.80;;;;;;;;;;5077858;28;20028;-78
2023/05/20 10:12:36;;;;;;;4.32;1.10;;;;;;;;;;5102498;28;20050;-78
2023/05/20 10:15:14;;;;;;;1.23;0.80;;;;;;;;;;5066434;28;20115;-77
2023/05/20 10:17:46;;;;;;;1.50;1.10;;;;;;;;;;5093881;28;20078;-78
2023/05/20 10:20:12;;;;;;;4.35;1.27;;;;;;;;;;5074800;28;20051;-78
2023/05/20 10:22:44;;;;;;;1.52;1.40;;;;;;;;;;5091521;28;20472;-78
2023/05/20 10:25:11;;;;;;;2.72;1.50;;;;;;;;;;5091834;28;20122;-78
2023/05/20 10:27:46;;;;;;;1.92;1.00;;;;;;;;;;5096693;28;20101;-78
2023/05/20 10:30:19;;;;;;;2.13;1.23;;;;;;;;;;5090780;28;20111;-78
2023/05/20 10:32:49;;;;;;;2.55;1.10;;;;;;;;;;5088088;28;20085;-78
2023/05/20 10:35:20;;;;;;;3.20;1.52;;;;;;;;;;5089416;28;20502;-78
2023/05/20 10:37:47;;;;;;;2.08;1.20;;;;;;;;;;5097307;28;20036;-78
2023/05/20 10:40:14;;;;;;;2.15;1.20;;;;;;;;;;5094126;28;20027;-77
2023/05/20 10:42:40;;;;;;;3.33;1.33;;;;;;;;;;5096505;28;20032;-78
2023/05/20 10:45:07;;;;;;;3.33;1.50;;;;;;;;;;5094217;28;20032;-78
2023/05/20 10:47:33;;;;;;;5.70;1.70;;;;;;;;;;5095001;28;20062;-78
2023/05/20 10:50:04;;;;;;;3.83;1.40;;;;;;;;;;5093785;28;20032;-78
2023/05/20 10:52:35;;;;;;;2.45;1.30;;;;;;;;;;5093977;28;20023;-77
2023/05/20 10:55:03;;;;;;;3.15;1.25;;;;;;;;;;5096320;28;20024;-78
2023/05/20 10:57:33;;;;;;;3.60;1.40;;;;;;;;;;5094057;28;20016;-78
2023/05/20 11:00:00;;;;;;;3.85;1.70;;;;;;;;;;5096966;28;20039;-78
2023/05/20 11:02:27;;;;;;;2.65;1.83;;;;;;;;;;5095412;28;20043;-78
2023/05/20 11:04:53;;;;;;;7.90;1.48;;;;;;;;;;5090529;28;20016;-78
2023/05/20 11:07:29;;;;;;;1.50;1.33;;;;;;;;;;5090642;28;20024;-78
2023/05/20 11:09:56;;;;;;;3.45;1.48;;;;;;;;;;5093428;28;20081;-78
2023/05/20 11:12:22;;;;;;;5.95;2.03;;;;;;;;;;5091346;28;20081;-77
2023/05/20 11:14:49;;;;;;;4.85;2.05;;;;;;;;;;5093138;28;20059;-77
2023/05/20 11:17:18;;;;;;;2.75;1.73;;;;;;;;;;5092196;28;20024;-78
2023/05/20 11:19:44;;;;;;;2.88;1.70;;;;;;;;;;5093467;28;20032;-78
2023/05/20 11:22:10;;;;;;;3.53;1.55;;;;;;;;;;5101372;28;20024;-78
2023/05/20 11:24:43;;;;;;;3.05;1.67;;;;;;;;;;5084579;28;20055;-78
2023/05/20 11:27:09;;;;;;;8.77;2.13;;;;;;;;;;5092987;28;20020;-78
2023/05/20 11:29:35;;;;;;;6.00;2.25;;;;;;;;;;5097006;28;20067;-78
2023/05/20 11:32:01;;;;;;;2.75;1.40;;;;;;;;;;5096309;28;20394;-78
2023/05/20 11:34:32;;;;;;;5.03;2.63;;;;;;;;;;5101017;28;20120;-78
2023/05/20 11:36:59;;;;;;;3.25;1.73;;;;;;;;;;5097390;28;20027;-79
2023/05/20 11:39:28;;;;;;;3.38;1.80;;;;;;;;;;5098590;28;20437;-78
2023/05/20 11:41:57;;;;;;;4.60;1.50;;;;;;;;;;5103291;28;20028;-78
2023/05/20 11:44:24;;;;;;;1.92;1.35;;;;;;;;;;5095747;28;20022;-78
2023/05/20 11:46:50;;;;;;;3.20;1.73;;;;;;;;;;5099441;28;20028;-78
2023/05/20 11:49:16;;;;;;;5.95;1.95;;;;;;;;;;5099646;28;20388;-78
2023/05/20 11:51:43;;;;;;;6.15;2.13;;;;;;;;;;5096585;28;20039;-78
2023/05/20 11:54:09;;;;;;;6.80;1.85;;;;;;;;;;5093362;28;20615;-78
2023/05/20 11:56:41;;;;;;;2.30;1.40;;;;;;;;;;5096963;28;20019;-78
2023/05/20 11:59:09;;;;;;;5.15;1.30;;;;;;;;;;5100446;28;20078;-78
2023/05/20 12:01:36;;;;;;;3.35;1.92;;;;;;;;;;5098806;28;20024;-78
2023/05/20 12:04:04;;;;;;;3.65;1.85;;;;;;;;;;5078708;28;20035;-78
2023/05/20 12:06:30;;;;;;;2.38;1.70;;;;;;;;;;5099264;28;20020;-78
2023/05/20 12:08:56;;;;;;;4.25;2.03;;;;;;;;;;5099493;28;20027;-78
2023/05/20 12:11:22;;;;;;;3.95;1.65;;;;;;;;;;5099396;28;20020;-78
2023/05/20 12:13:49;;;;;;;4.43;1.83;;;;;;;;;;5096720;28;20115;-78
2023/05/20 12:16:15;;;;;;;3.60;1.48;;;;;;;;;;5101624;28;20514;-78
2023/05/20 12:18:41;;;;;;;3.67;1.85;;;;;;;;;;5101429;28;20028;-78
2023/05/20 12:21:07;;;;;;;3.67;1.88;;;;;;;;;;5102857;28;20031;-78
2023/05/20 12:23:33;;;;;;;5.00;2.17;;;;;;;;;;5097791;28;20061;-78
2023/05/20 12:25:59;;;;;;;4.32;2.35;;;;;;;;;;5097617;28;20472;-78
2023/05/20 12:28:25;;;;;;;3.83;2.33;;;;;;;;;;5100699;28;20020;-78
2023/05/20 12:30:51;;;;;;;5.90;2.08;;;;;;;;;;5102153;28;20036;-78
2023/05/20 12:33:19;;;;;;;5.60;1.85;;;;;;;;;;5100961;28;20028;-78
2023/05/20 12:35:45;;;;;;;2.70;1.80;;;;;;;;;;5100512;28;20035;-78
2023/05/20 12:38:11;;;;;;;2.08;1.45;;;;;;;;;;5104724;28;20028;-78
2023/05/20 12:40:37;;;;;;;3.05;1.92;;;;;;;;;;5101287;28;20458;-77
2023/05/20 12:43:04;;;;;;;3.80;1.67;;;;;;;;;;5101245;28;20036;-78
2023/05/20 12:45:30;;;;;;;3.28;1.70;;;;;;;;;;5099468;28;20037;-78
2023/05/20 12:47:56;;;;;;;5.10;2.30;;;;;;;;;;5097834;28;20028;-78
2023/05/20 12:50:22;;;;;;;2.78;2.08;;;;;;;;;;5097652;28;20025;-78
2023/05/20 12:52:48;;;;;;;6.72;1.75;;;;;;;;;;5098851;28;20025;-78
2023/05/20 12:55:14;;;;;;;5.10;2.20;;;;;;;;;;5098179;28;20035;-78
2023/05/20 12:57:41;;;;;;;5.32;2.42;;;;;;;;;;5095652;28;20055;-78
2023/05/20 13:00:08;;;;;;;4.68;2.25;;;;;;;;;;5096833;28;20034;-78
2023/05/20 13:02:34;;;;;;;5.13;2.38;;;;;;;;;;5093700;28;20035;-78
2023/05/20 13:05:00;;;;;;;4.57;1.73;;;;;;;;;;5097978;28;20032;-78
2023/05/20 13:07:28;;;;;;;3.38;2.53;;;;;;;;;;5100073;28;20028;-78
2023/05/20 13:09:55;;;;;;;5.45;2.35;;;;;;;;;;5104012;28;20106;-78
2023/05/20 13:12:21;;;;;;;5.32;2.33;;;;;;;;;;5096239;28;20020;-78
2023/05/20 13:14:47;;;;;;;5.15;2.13;;;;;;;;;;5104808;28;20028;-78
2023/05/20 13:17:14;;;;;;;6.60;2.47;;;;;;;;;;5099780;28;20073;-78
2023/05/20 13:19:40;;;;;;;3.75;1.42;;;;;;;;;;5084680;28;20035;-78
2023/05/20 13:22:06;;;;;;;3.63;1.90;;;;;;;;;;5099013;28;20032;-78
2023/05/20 13:24:33;;;;;;;5.85;2.63;;;;;;;;;;5102951;28;20044;-78
2023/05/20 13:27:00;;;;;;;4.43;2.28;;;;;;;;;;5105007;28;20024;-78
2023/05/20 13:29:26;;;;;;;6.93;2.78;;;;;;;;;;5108986;28;20482;-78
2023/05/20 13:31:52;;;;;;;8.85;2.90;;;;;;;;;;5100287;28;20035;-78
2023/05/20 13:34:18;;;;;;;4.45;2.35;;;;;;;;;;5107728;28;20020;-78
2023/05/20 13:36:46;;;;;;;4.97;2.10;;;;;;;;;;5083937;28;20470;-78
2023/05/20 13:39:13;;;;;;;5.32;1.98;;;;;;;;;;5095973;28;20119;-78
2023/05/20 13:41:39;;;;;;;4.25;2.63;;;;;;;;;;5097278;28;20039;-78
2023/05/20 13:44:05;;;;;;;5.20;2.42;;;;;;;;;;5098979;28;20032;-78
2023/05/20 13:46:31;;;;;;;4.15;2.47;;;;;;;;;;5101521;28;20103;-79
2023/05/20 13:48:57;;;;;;;3.25;1.67;;;;;;;;;;5101909;28;20020;-78
2023/05/20 13:51:23;;;;;;;4.80;2.13;;;;;;;;;;5086695;28;20063;-78
2023/05/20 13:53:49;;;;;;;3.60;1.85;;;;;;;;;;5095807;28;20046;-78
2023/05/20 13:56:15;;;;;;;4.95;2.10;;;;;;;;;;5096848;28;20387;-78
2023/05/20 13:58:41;;;;;;;4.70;2.30;;;;;;;;;;5098438;28;20666;-78
2023/05/20 14:01:07;;;;;;;5.13;2.17;;;;;;;;;;5089488;28;20117;-78
2023/05/20 14:03:34;;;;;;;4.00;2.95;;;;;;;;;;5096716;28;20036;-78
2023/05/20 14:06:00;;;;;;;4.50;2.25;;;;;;;;;;5094499;28;20020;-78
2023/05/20 14:08:27;;;;;;;3.15;2.03;;;;;;;;;;5089759;28;20028;-78
2023/05/20 14:10:54;;;;;;;7.78;2.65;;;;;;;;;;5097401;28;20028;-78
2023/05/20 14:13:23;;;;;;;3.53;2.08;;;;;;;;;;5096215;28;20032;-78
2023/05/20 14:15:49;;;;;;;6.03;3.00;;;;;;;;;;5092352;28;20214;-78
2023/05/20 14:18:16;;;;;;;5.53;3.08;;;;;;;;;;5095428;28;20031;-78
2023/05/20 14:20:42;;;;;;;4.40;2.45;;;;;;;;;;5096341;28;20028;-78
2023/05/20 14:23:08;;;;;;;3.92;2.50;;;;;;;;;;5095403;28;20044;-78
2023/05/20 14:25:34;;;;;;;6.53;2.17;;;;;;;;;;5094032;28;20052;-78
2023/05/20 14:28:00;;;;;;;12.10;4.40;;;;;;;;;;5096905;28;20352;-78
2023/05/20 14:30:32;;;;;;;3.60;1.90;;;;;;;;;;5094793;28;20081;-78
2023/05/20 14:32:58;;;;;;;4.28;2.03;;;;;;;;;;5076493;28;20024;-78
2023/05/20 14:35:24;;;;;;;4.55;2.25;;;;;;;;;;5093923;28;20024;-77
2023/05/20 14:37:50;;;;;;;2.20;1.60;;;;;;;;;;5094036;28;20027;-77